sensor_id;sensor_type;location;lat;lon;timestamp;P1;durP1;ratioP1;P2;durP2;ratioP2
70450;SDS011;58869;51.982;4.450;2022-12-22T00:02:44;26.04;;;25.24;;
70450;SDS011;58869;51.982;4.450;2022-12-22T00:05:28;27.31;;;26.36;;
70450;SDS011;58869;51.982;4.450;2022-12-22T00:08:12;28.09;;;27.01;;
70450;SDS011;58869;51.982;4.450;2022-12-22T00:10:56;29.46;;;28.24;;
70450;SDS011;58869;51.982;4.450;2022-12-22T00:13:41;29.47;;;28.41;;
70450;SDS011;58869;51.982;4.450;2022-12-22T00:16:34;29.58;;;28.49;;
70450;SDS011;58869;51.982;4.450;2022-12-22T00:19:19;29.17;;;28.19;;
70450;SDS011;58869;51.982;4.450;2022-12-22T00:25:16;30.79;;;29.43;;
70450;SDS011;58869;51.982;4.450;2022-12-22T00:28:04;31.54;;;30.48;;
70450;SDS011;58869;51.982;4.450;2022-12-22T00:30:57;31.71;;;30.24;;
70450;SDS011;58869;51.982;4.450;2022-12-22T00:33:41;31.62;;;30.50;;
70450;SDS011;58869;51.982;4.450;2022-12-22T00:36:25;31.62;;;30.60;;
70450;SDS011;58869;51.982;4.450;2022-12-22T00:39:11;31.71;;;30.48;;
70450;SDS011;58869;51.982;4.450;2022-12-22T00:41:56;32.16;;;30.95;;
70450;SDS011;58869;51.982;4.450;2022-12-22T00:44:40;32.83;;;31.29;;
70450;SDS011;58869;51.982;4.450;2022-12-22T00:47:26;31.80;;;30.66;;
70450;SDS011;58869;51.982;4.450;2022-12-22T00:50:12;33.33;;;31.85;;
70450;SDS011;58869;51.982;4.450;2022-12-22T00:52:57;33.45;;;32.00;;
70450;SDS011;58869;51.982;4.450;2022-12-22T00:55:42;33.01;;;31.60;;
70450;SDS011;58869;51.982;4.450;2022-12-22T00:58:26;33.22;;;31.86;;
70450;SDS011;58869;51.982;4.450;2022-12-22T01:01:11;34.55;;;33.08;;
70450;SDS011;58869;51.982;4.450;2022-12-22T01:03:55;35.14;;;33.58;;
70450;SDS011;58869;51.982;4.450;2022-12-22T01:06:39;33.87;;;32.56;;
70450;SDS011;58869;51.982;4.450;2022-12-22T01:09:25;33.87;;;32.49;;
70450;SDS011;58869;51.982;4.450;2022-12-22T01:15:20;34.30;;;32.92;;
70450;SDS011;58869;51.982;4.450;2022-12-22T01:18:06;33.46;;;32.43;;
70450;SDS011;58869;51.982;4.450;2022-12-22T01:20:50;34.99;;;33.48;;
70450;SDS011;58869;51.982;4.450;2022-12-22T01:23:36;34.84;;;33.27;;
70450;SDS011;58869;51.982;4.450;2022-12-22T01:26:21;35.01;;;33.50;;
70450;SDS011;58869;51.982;4.450;2022-12-22T01:29:05;34.41;;;33.06;;
70450;SDS011;58869;51.982;4.450;2022-12-22T01:31:49;34.64;;;33.47;;
70450;SDS011;58869;51.982;4.450;2022-12-22T01:34:32;34.45;;;33.10;;
70450;SDS011;58869;51.982;4.450;2022-12-22T01:37:18;34.68;;;33.14;;
70450;SDS011;58869;51.982;4.450;2022-12-22T01:40:05;35.09;;;33.64;;
70450;SDS011;58869;51.982;4.450;2022-12-22T01:43:26;34.41;;;32.92;;
70450;SDS011;58869;51.982;4.450;2022-12-22T01:46:17;35.20;;;33.72;;
70450;SDS011;58869;51.982;4.450;2022-12-22T01:49:07;34.71;;;32.98;;
70450;SDS011;58869;51.982;4.450;2022-12-22T01:52:10;33.95;;;32.52;;
70450;SDS011;58869;51.982;4.450;2022-12-22T01:54:58;33.64;;;32.02;;
70450;SDS011;58869;51.982;4.450;2022-12-22T01:57:58;34.61;;;33.13;;
70450;SDS011;58869;51.982;4.450;2022-12-22T02:00:48;33.86;;;32.45;;
70450;SDS011;58869;51.982;4.450;2022-12-22T02:03:32;34.92;;;33.06;;
70450;SDS011;58869;51.982;4.450;2022-12-22T02:06:27;34.56;;;32.78;;
70450;SDS011;58869;51.982;4.450;2022-12-22T02:15:55;32.72;;;31.04;;
70450;SDS011;58869;51.982;4.450;2022-12-22T02:18:47;32.14;;;30.80;;
70450;SDS011;58869;51.982;4.450;2022-12-22T02:22:04;32.29;;;30.62;;
70450;SDS011;58869;51.982;4.450;2022-12-22T02:25:00;32.22;;;30.64;;
70450;SDS011;58869;51.982;4.450;2022-12-22T02:27:48;32.51;;;30.85;;
70450;SDS011;58869;51.982;4.450;2022-12-22T02:30:39;33.66;;;31.90;;
70450;SDS011;58869;51.982;4.450;2022-12-22T02:33:25;33.08;;;31.54;;
70450;SDS011;58869;51.982;4.450;2022-12-22T02:36:18;33.30;;;31.55;;
70450;SDS011;58869;51.982;4.450;2022-12-22T02:39:24;32.90;;;31.12;;
70450;SDS011;58869;51.982;4.450;2022-12-22T02:42:34;32.74;;;31.29;;
70450;SDS011;58869;51.982;4.450;2022-12-22T02:45:55;33.45;;;31.83;;
70450;SDS011;58869;51.982;4.450;2022-12-22T02:48:54;32.32;;;30.91;;
70450;SDS011;58869;51.982;4.450;2022-12-22T02:52:04;31.61;;;29.94;;
70450;SDS011;58869;51.982;4.450;2022-12-22T02:54:56;32.81;;;31.32;;
70450;SDS011;58869;51.982;4.450;2022-12-22T02:57:41;32.26;;;30.54;;
70450;SDS011;58869;51.982;4.450;2022-12-22T03:00:25;31.45;;;30.14;;
70450;SDS011;58869;51.982;4.450;2022-12-22T03:03:09;30.56;;;29.29;;
70450;SDS011;58869;51.982;4.450;2022-12-22T03:05:53;30.10;;;28.52;;
70450;SDS011;58869;51.982;4.450;2022-12-22T03:08:37;29.17;;;27.96;;
70450;SDS011;58869;51.982;4.450;2022-12-22T03:11:21;29.86;;;28.27;;
70450;SDS011;58869;51.982;4.450;2022-12-22T03:14:05;31.01;;;29.38;;
70450;SDS011;58869;51.982;4.450;2022-12-22T03:16:50;32.05;;;30.21;;
70450;SDS011;58869;51.982;4.450;2022-12-22T03:19:34;33.83;;;31.78;;
70450;SDS011;58869;51.982;4.450;2022-12-22T03:22:18;34.54;;;32.45;;
70450;SDS011;58869;51.982;4.450;2022-12-22T03:25:05;33.23;;;31.52;;
70450;SDS011;58869;51.982;4.450;2022-12-22T03:27:50;34.19;;;32.05;;
70450;SDS011;58869;51.982;4.450;2022-12-22T03:30:15;34.88;;;32.54;;
70450;SDS011;58869;51.982;4.450;2022-12-22T03:32:41;35.14;;;32.45;;
70450;SDS011;58869;51.982;4.450;2022-12-22T03:35:12;35.96;;;33.16;;
70450;SDS011;58869;51.982;4.450;2022-12-22T03:37:38;33.34;;;31.26;;
70450;SDS011;58869;51.982;4.450;2022-12-22T03:40:12;34.69;;;32.42;;
70450;SDS011;58869;51.982;4.450;2022-12-22T03:42:50;35.90;;;33.00;;
70450;SDS011;58869;51.982;4.450;2022-12-22T03:45:34;35.06;;;32.26;;
70450;SDS011;58869;51.982;4.450;2022-12-22T03:48:18;34.85;;;32.35;;
70450;SDS011;58869;51.982;4.450;2022-12-22T03:50:52;36.05;;;33.05;;
70450;SDS011;58869;51.982;4.450;2022-12-22T03:53:18;37.05;;;34.14;;
70450;SDS011;58869;51.982;4.450;2022-12-22T03:55:54;36.73;;;34.07;;
70450;SDS011;58869;51.982;4.450;2022-12-22T03:58:19;35.97;;;33.55;;
70450;SDS011;58869;51.982;4.450;2022-12-22T04:00:45;35.82;;;33.52;;
70450;SDS011;58869;51.982;4.450;2022-12-22T04:03:10;36.92;;;34.26;;
70450;SDS011;58869;51.982;4.450;2022-12-22T04:05:51;36.84;;;34.09;;
70450;SDS011;58869;51.982;4.450;2022-12-22T04:08:26;36.23;;;33.74;;
70450;SDS011;58869;51.982;4.450;2022-12-22T04:10:51;35.33;;;33.15;;
70450;SDS011;58869;51.982;4.450;2022-12-22T04:13:35;36.23;;;33.69;;
70450;SDS011;58869;51.982;4.450;2022-12-22T04:16:13;34.01;;;32.06;;
70450;SDS011;58869;51.982;4.450;2022-12-22T04:18:51;33.59;;;31.67;;
70450;SDS011;58869;51.982;4.450;2022-12-22T04:21:16;34.87;;;32.11;;
70450;SDS011;58869;51.982;4.450;2022-12-22T04:23:45;36.51;;;33.71;;
70450;SDS011;58869;51.982;4.450;2022-12-22T04:26:23;34.56;;;32.61;;
70450;SDS011;58869;51.982;4.450;2022-12-22T04:29:25;34.20;;;32.06;;
70450;SDS011;58869;51.982;4.450;2022-12-22T04:31:50;33.58;;;31.36;;
70450;SDS011;58869;51.982;4.450;2022-12-22T04:34:16;33.03;;;30.94;;
70450;SDS011;58869;51.982;4.450;2022-12-22T04:36:50;31.95;;;30.07;;
70450;SDS011;58869;51.982;4.450;2022-12-22T04:39:16;31.03;;;29.23;;
70450;SDS011;58869;51.982;4.450;2022-12-22T04:41:56;31.20;;;29.11;;
70450;SDS011;58869;51.982;4.450;2022-12-22T04:46:55;30.75;;;28.80;;
70450;SDS011;58869;51.982;4.450;2022-12-22T04:49:24;29.92;;;28.10;;
70450;SDS011;58869;51.982;4.450;2022-12-22T04:51:52;29.22;;;27.60;;
70450;SDS011;58869;51.982;4.450;2022-12-22T04:54:27;29.28;;;27.34;;
70450;SDS011;58869;51.982;4.450;2022-12-22T04:56:56;29.38;;;26.93;;
70450;SDS011;58869;51.982;4.450;2022-12-22T04:59:27;28.35;;;26.19;;
70450;SDS011;58869;51.982;4.450;2022-12-22T05:02:05;27.09;;;25.11;;
70450;SDS011;58869;51.982;4.450;2022-12-22T05:04:46;26.86;;;24.31;;
70450;SDS011;58869;51.982;4.450;2022-12-22T05:07:20;26.18;;;23.77;;
70450;SDS011;58869;51.982;4.450;2022-12-22T05:09:55;23.19;;;21.84;;
70450;SDS011;58869;51.982;4.450;2022-12-22T05:12:24;23.20;;;21.71;;
70450;SDS011;58869;51.982;4.450;2022-12-22T05:15:08;23.55;;;21.84;;
70450;SDS011;58869;51.982;4.450;2022-12-22T05:17:49;22.15;;;20.60;;
70450;SDS011;58869;51.982;4.450;2022-12-22T05:20:20;20.92;;;19.63;;
70450;SDS011;58869;51.982;4.450;2022-12-22T05:22:46;20.63;;;19.53;;
70450;SDS011;58869;51.982;4.450;2022-12-22T05:25:21;20.91;;;19.82;;
70450;SDS011;58869;51.982;4.450;2022-12-22T05:27:56;21.87;;;20.26;;
70450;SDS011;58869;51.982;4.450;2022-12-22T05:30:28;21.86;;;20.03;;
70450;SDS011;58869;51.982;4.450;2022-12-22T05:32:53;20.83;;;19.25;;
70450;SDS011;58869;51.982;4.450;2022-12-22T05:35:31;19.79;;;18.36;;
70450;SDS011;58869;51.982;4.450;2022-12-22T05:38:09;21.26;;;19.44;;
70450;SDS011;58869;51.982;4.450;2022-12-22T05:40:34;21.32;;;19.67;;
70450;SDS011;58869;51.982;4.450;2022-12-22T05:43:00;21.01;;;19.37;;
70450;SDS011;58869;51.982;4.450;2022-12-22T05:45:25;20.47;;;18.94;;
70450;SDS011;58869;51.982;4.450;2022-12-22T05:47:51;19.97;;;18.70;;
70450;SDS011;58869;51.982;4.450;2022-12-22T05:50:19;18.88;;;18.03;;
70450;SDS011;58869;51.982;4.450;2022-12-22T05:52:52;18.67;;;17.75;;
70450;SDS011;58869;51.982;4.450;2022-12-22T05:55:18;17.31;;;16.57;;
70450;SDS011;58869;51.982;4.450;2022-12-22T05:57:53;17.51;;;16.95;;
70450;SDS011;58869;51.982;4.450;2022-12-22T06:03:25;17.47;;;16.84;;
70450;SDS011;58869;51.982;4.450;2022-12-22T06:05:51;16.97;;;16.30;;
70450;SDS011;58869;51.982;4.450;2022-12-22T06:08:21;16.34;;;15.83;;
70450;SDS011;58869;51.982;4.450;2022-12-22T06:10:47;17.76;;;16.84;;
70450;SDS011;58869;51.982;4.450;2022-12-22T06:13:16;15.96;;;15.55;;
70450;SDS011;58869;51.982;4.450;2022-12-22T06:15:50;16.15;;;15.75;;
70450;SDS011;58869;51.982;4.450;2022-12-22T06:18:16;16.40;;;15.92;;
70450;SDS011;58869;51.982;4.450;2022-12-22T06:20:51;15.87;;;15.33;;
70450;SDS011;58869;51.982;4.450;2022-12-22T06:23:17;14.90;;;14.57;;
70450;SDS011;58869;51.982;4.450;2022-12-22T06:26:01;13.34;;;13.17;;
70450;SDS011;58869;51.982;4.450;2022-12-22T06:28:30;13.56;;;13.35;;
70450;SDS011;58869;51.982;4.450;2022-12-22T06:30:55;12.97;;;12.76;;
70450;SDS011;58869;51.982;4.450;2022-12-22T06:33:32;13.47;;;13.14;;
70450;SDS011;58869;51.982;4.450;2022-12-22T06:36:08;12.80;;;12.61;;
70450;SDS011;58869;51.982;4.450;2022-12-22T06:38:34;11.46;;;11.30;;
70450;SDS011;58869;51.982;4.450;2022-12-22T06:41:17;11.90;;;11.64;;
70450;SDS011;58869;51.982;4.450;2022-12-22T06:44:03;11.67;;;11.36;;
70450;SDS011;58869;51.982;4.450;2022-12-22T06:46:35;11.78;;;11.51;;
70450;SDS011;58869;51.982;4.450;2022-12-22T06:49:06;12.38;;;12.03;;
70450;SDS011;58869;51.982;4.450;2022-12-22T06:51:35;12.49;;;12.19;;
70450;SDS011;58869;51.982;4.450;2022-12-22T06:54:13;12.55;;;12.14;;
70450;SDS011;58869;51.982;4.450;2022-12-22T06:56:41;13.80;;;13.19;;
70450;SDS011;58869;51.982;4.450;2022-12-22T06:59:13;13.06;;;12.53;;
70450;SDS011;58869;51.982;4.450;2022-12-22T07:01:54;12.72;;;12.32;;
70450;SDS011;58869;51.982;4.450;2022-12-22T07:04:35;12.00;;;11.54;;
70450;SDS011;58869;51.982;4.450;2022-12-22T07:07:01;11.12;;;10.80;;
70450;SDS011;58869;51.982;4.450;2022-12-22T07:09:26;9.79;;;9.61;;
70450;SDS011;58869;51.982;4.450;2022-12-22T07:11:55;9.06;;;8.89;;
70450;SDS011;58869;51.982;4.450;2022-12-22T07:14:32;8.61;;;8.40;;
70450;SDS011;58869;51.982;4.450;2022-12-22T07:16:58;8.79;;;8.70;;
70450;SDS011;58869;51.982;4.450;2022-12-22T07:19:24;10.22;;;10.16;;
70450;SDS011;58869;51.982;4.450;2022-12-22T07:21:57;11.28;;;11.21;;
70450;SDS011;58869;51.982;4.450;2022-12-22T07:24:25;10.35;;;10.24;;
70450;SDS011;58869;51.982;4.450;2022-12-22T07:26:59;9.65;;;9.61;;
70450;SDS011;58869;51.982;4.450;2022-12-22T07:29:36;9.53;;;9.43;;
70450;SDS011;58869;51.982;4.450;2022-12-22T07:32:09;9.41;;;9.32;;
70450;SDS011;58869;51.982;4.450;2022-12-22T07:34:37;8.63;;;8.53;;
70450;SDS011;58869;51.982;4.450;2022-12-22T07:37:09;8.31;;;8.28;;
70450;SDS011;58869;51.982;4.450;2022-12-22T07:39:36;8.44;;;8.40;;
70450;SDS011;58869;51.982;4.450;2022-12-22T07:42:01;8.72;;;8.60;;
70450;SDS011;58869;51.982;4.450;2022-12-22T07:45:00;8.73;;;8.62;;
70450;SDS011;58869;51.982;4.450;2022-12-22T07:47:26;9.03;;;8.96;;
70450;SDS011;58869;51.982;4.450;2022-12-22T07:50:01;9.04;;;8.91;;
70450;SDS011;58869;51.982;4.450;2022-12-22T07:52:45;8.26;;;8.09;;
70450;SDS011;58869;51.982;4.450;2022-12-22T07:55:13;7.84;;;7.77;;
70450;SDS011;58869;51.982;4.450;2022-12-22T07:58:09;7.70;;;7.70;;
70450;SDS011;58869;51.982;4.450;2022-12-22T08:00:43;7.48;;;7.47;;
70450;SDS011;58869;51.982;4.450;2022-12-22T08:03:09;7.69;;;7.66;;
70450;SDS011;58869;51.982;4.450;2022-12-22T08:05:46;7.89;;;7.82;;
70450;SDS011;58869;51.982;4.450;2022-12-22T08:08:12;7.58;;;7.56;;
70450;SDS011;58869;51.982;4.450;2022-12-22T08:10:43;7.71;;;7.64;;
70450;SDS011;58869;51.982;4.450;2022-12-22T08:13:09;7.19;;;7.19;;
70450;SDS011;58869;51.982;4.450;2022-12-22T08:15:35;7.59;;;7.59;;
70450;SDS011;58869;51.982;4.450;2022-12-22T08:18:02;7.18;;;7.18;;
70450;SDS011;58869;51.982;4.450;2022-12-22T08:20:27;7.55;;;7.55;;
70450;SDS011;58869;51.982;4.450;2022-12-22T08:22:59;7.44;;;7.44;;
70450;SDS011;58869;51.982;4.450;2022-12-22T08:25:34;7.12;;;7.12;;
70450;SDS011;58869;51.982;4.450;2022-12-22T08:28:00;7.40;;;7.40;;
70450;SDS011;58869;51.982;4.450;2022-12-22T08:30:27;7.44;;;7.44;;
70450;SDS011;58869;51.982;4.450;2022-12-22T08:32:52;7.47;;;7.47;;
70450;SDS011;58869;51.982;4.450;2022-12-22T08:35:18;7.52;;;7.52;;
70450;SDS011;58869;51.982;4.450;2022-12-22T08:37:44;7.41;;;7.41;;
70450;SDS011;58869;51.982;4.450;2022-12-22T08:40:26;7.80;;;7.80;;
70450;SDS011;58869;51.982;4.450;2022-12-22T08:43:05;7.67;;;7.67;;
70450;SDS011;58869;51.982;4.450;2022-12-22T08:45:32;8.10;;;8.10;;
70450;SDS011;58869;51.982;4.450;2022-12-22T08:47:57;8.46;;;8.46;;
70450;SDS011;58869;51.982;4.450;2022-12-22T08:50:35;8.93;;;8.93;;
70450;SDS011;58869;51.982;4.450;2022-12-22T08:53:26;8.20;;;8.20;;
70450;SDS011;58869;51.982;4.450;2022-12-22T08:55:54;8.37;;;8.37;;
70450;SDS011;58869;51.982;4.450;2022-12-22T08:58:31;8.34;;;8.34;;
70450;SDS011;58869;51.982;4.450;2022-12-22T09:00:59;7.98;;;7.98;;
70450;SDS011;58869;51.982;4.450;2022-12-22T09:03:34;8.20;;;8.20;;
70450;SDS011;58869;51.982;4.450;2022-12-22T09:06:00;7.85;;;7.85;;
70450;SDS011;58869;51.982;4.450;2022-12-22T09:11:24;7.46;;;7.46;;
70450;SDS011;58869;51.982;4.450;2022-12-22T09:13:52;7.19;;;7.19;;
70450;SDS011;58869;51.982;4.450;2022-12-22T09:16:19;7.01;;;7.01;;
70450;SDS011;58869;51.982;4.450;2022-12-22T09:18:46;7.00;;;7.00;;
70450;SDS011;58869;51.982;4.450;2022-12-22T09:21:12;6.70;;;6.69;;
70450;SDS011;58869;51.982;4.450;2022-12-22T09:23:38;6.28;;;6.28;;
70450;SDS011;58869;51.982;4.450;2022-12-22T09:26:07;6.04;;;6.04;;
70450;SDS011;58869;51.982;4.450;2022-12-22T09:28:34;5.66;;;5.66;;
70450;SDS011;58869;51.982;4.450;2022-12-22T09:30:59;4.98;;;4.97;;
70450;SDS011;58869;51.982;4.450;2022-12-22T09:33:25;5.44;;;5.44;;
70450;SDS011;58869;51.982;4.450;2022-12-22T09:35:51;5.18;;;5.16;;
70450;SDS011;58869;51.982;4.450;2022-12-22T09:38:18;5.32;;;5.28;;
70450;SDS011;58869;51.982;4.450;2022-12-22T09:40:44;5.32;;;5.22;;
70450;SDS011;58869;51.982;4.450;2022-12-22T09:43:16;5.25;;;5.10;;
70450;SDS011;58869;51.982;4.450;2022-12-22T09:45:46;5.01;;;4.89;;
70450;SDS011;58869;51.982;4.450;2022-12-22T09:48:12;4.54;;;4.49;;
70450;SDS011;58869;51.982;4.450;2022-12-22T09:50:39;4.53;;;4.47;;
70450;SDS011;58869;51.982;4.450;2022-12-22T09:53:06;4.65;;;4.58;;
70450;SDS011;58869;51.982;4.450;2022-12-22T09:55:42;4.35;;;4.29;;
70450;SDS011;58869;51.982;4.450;2022-12-22T09:58:24;4.41;;;4.33;;
70450;SDS011;58869;51.982;4.450;2022-12-22T10:06:11;4.64;;;4.52;;
70450;SDS011;58869;51.982;4.450;2022-12-22T10:08:41;4.68;;;4.65;;
70450;SDS011;58869;51.982;4.450;2022-12-22T10:11:11;4.65;;;4.61;;
70450;SDS011;58869;51.982;4.450;2022-12-22T10:13:39;4.74;;;4.73;;
70450;SDS011;58869;51.982;4.450;2022-12-22T10:16:22;4.73;;;4.70;;
70450;SDS011;58869;51.982;4.450;2022-12-22T10:19:08;4.52;;;4.51;;
70450;SDS011;58869;51.982;4.450;2022-12-22T10:21:35;4.62;;;4.60;;
70450;SDS011;58869;51.982;4.450;2022-12-22T10:24:13;4.56;;;4.56;;
70450;SDS011;58869;51.982;4.450;2022-12-22T10:26:55;4.46;;;4.46;;
70450;SDS011;58869;51.982;4.450;2022-12-22T10:29:22;3.98;;;3.97;;
70450;SDS011;58869;51.982;4.450;2022-12-22T10:31:59;4.11;;;4.10;;
70450;SDS011;58869;51.982;4.450;2022-12-22T10:34:26;4.37;;;4.37;;
70450;SDS011;58869;51.982;4.450;2022-12-22T10:36:52;4.48;;;4.48;;
70450;SDS011;58869;51.982;4.450;2022-12-22T10:39:26;5.09;;;5.09;;
70450;SDS011;58869;51.982;4.450;2022-12-22T10:41:55;5.19;;;5.19;;
70450;SDS011;58869;51.982;4.450;2022-12-22T10:44:29;5.59;;;5.59;;
70450;SDS011;58869;51.982;4.450;2022-12-22T10:49:56;5.76;;;5.76;;
70450;SDS011;58869;51.982;4.450;2022-12-22T10:52:30;6.61;;;6.61;;
70450;SDS011;58869;51.982;4.450;2022-12-22T10:55:12;7.17;;;7.17;;
70450;SDS011;58869;51.982;4.450;2022-12-22T10:57:43;10.64;;;10.64;;
70450;SDS011;58869;51.982;4.450;2022-12-22T11:00:30;13.76;;;13.58;;
70450;SDS011;58869;51.982;4.450;2022-12-22T11:02:56;16.46;;;16.00;;
70450;SDS011;58869;51.982;4.450;2022-12-22T11:05:23;18.84;;;18.45;;
70450;SDS011;58869;51.982;4.450;2022-12-22T11:07:49;18.35;;;18.10;;
70450;SDS011;58869;51.982;4.450;2022-12-22T11:13:31;21.75;;;21.45;;
70450;SDS011;58869;51.982;4.450;2022-12-22T11:21:21;20.69;;;20.23;;
70450;SDS011;58869;51.982;4.450;2022-12-22T11:26:44;25.09;;;23.98;;
70450;SDS011;58869;51.982;4.450;2022-12-22T11:32:25;21.17;;;20.05;;
70450;SDS011;58869;51.982;4.450;2022-12-22T11:41:04;18.24;;;17.39;;
70450;SDS011;58869;51.982;4.450;2022-12-22T11:46:27;17.26;;;16.58;;
70450;SDS011;58869;51.982;4.450;2022-12-22T11:57:38;18.82;;;18.21;;
70450;SDS011;58869;51.982;4.450;2022-12-22T12:00:15;19.31;;;18.61;;
70450;SDS011;58869;51.982;4.450;2022-12-22T12:05:34;19.20;;;18.48;;
70450;SDS011;58869;51.982;4.450;2022-12-22T12:08:08;19.91;;;19.30;;
70450;SDS011;58869;51.982;4.450;2022-12-22T12:11:11;20.13;;;19.24;;
70450;SDS011;58869;51.982;4.450;2022-12-22T12:22:13;21.63;;;21.06;;
70450;SDS011;58869;51.982;4.450;2022-12-22T12:30:42;24.02;;;23.05;;
70450;SDS011;58869;51.982;4.450;2022-12-22T12:33:18;24.84;;;23.81;;
70450;SDS011;58869;51.982;4.450;2022-12-22T12:41:12;25.45;;;24.53;;
70450;SDS011;58869;51.982;4.450;2022-12-22T12:43:54;26.18;;;25.40;;
70450;SDS011;58869;51.982;4.450;2022-12-22T12:52:09;27.20;;;26.21;;
70450;SDS011;58869;51.982;4.450;2022-12-22T12:57:21;27.54;;;26.54;;
70450;SDS011;58869;51.982;4.450;2022-12-22T13:02:38;28.40;;;27.26;;
70450;SDS011;58869;51.982;4.450;2022-12-22T13:06:06;27.13;;;26.22;;
70450;SDS011;58869;51.982;4.450;2022-12-22T13:08:24;26.48;;;25.56;;
70450;SDS011;58869;51.982;4.450;2022-12-22T13:16:21;28.11;;;27.05;;
70450;SDS011;58869;51.982;4.450;2022-12-22T13:18:57;29.51;;;28.16;;
70450;SDS011;58869;51.982;4.450;2022-12-22T13:21:40;29.42;;;28.31;;
70450;SDS011;58869;51.982;4.450;2022-12-22T13:27:26;30.75;;;29.30;;
70450;SDS011;58869;51.982;4.450;2022-12-22T13:29:52;30.63;;;29.38;;
70450;SDS011;58869;51.982;4.450;2022-12-22T13:32:35;30.89;;;29.60;;
70450;SDS011;58869;51.982;4.450;2022-12-22T13:38:04;29.42;;;28.39;;
70450;SDS011;58869;51.982;4.450;2022-12-22T13:40:40;29.38;;;28.24;;
70450;SDS011;58869;51.982;4.450;2022-12-22T13:43:30;27.95;;;27.08;;
70450;SDS011;58869;51.982;4.450;2022-12-22T13:46:16;28.94;;;27.75;;
70450;SDS011;58869;51.982;4.450;2022-12-22T13:51:23;29.33;;;28.49;;
70450;SDS011;58869;51.982;4.450;2022-12-22T13:54:03;30.02;;;28.93;;
70450;SDS011;58869;51.982;4.450;2022-12-22T13:56:49;32.00;;;30.81;;
70450;SDS011;58869;51.982;4.450;2022-12-22T13:59:25;32.02;;;30.72;;
70450;SDS011;58869;51.982;4.450;2022-12-22T14:08:09;33.18;;;31.95;;
70450;SDS011;58869;51.982;4.450;2022-12-22T14:10:37;32.60;;;31.51;;
70450;SDS011;58869;51.982;4.450;2022-12-22T14:13:30;32.97;;;31.87;;
70450;SDS011;58869;51.982;4.450;2022-12-22T14:16:12;33.34;;;32.07;;
70450;SDS011;58869;51.982;4.450;2022-12-22T14:18:45;33.18;;;31.83;;
70450;SDS011;58869;51.982;4.450;2022-12-22T14:21:16;32.49;;;31.38;;
70450;SDS011;58869;51.982;4.450;2022-12-22T14:23:43;31.79;;;30.56;;
70450;SDS011;58869;51.982;4.450;2022-12-22T14:26:16;31.67;;;30.80;;
70450;SDS011;58869;51.982;4.450;2022-12-22T14:35:35;31.88;;;30.91;;
70450;SDS011;58869;51.982;4.450;2022-12-22T14:38:15;30.66;;;29.89;;
70450;SDS011;58869;51.982;4.450;2022-12-22T14:41:21;31.98;;;30.89;;
70450;SDS011;58869;51.982;4.450;2022-12-22T14:52:24;31.64;;;30.50;;
70450;SDS011;58869;51.982;4.450;2022-12-22T14:55:01;31.93;;;30.88;;
70450;SDS011;58869;51.982;4.450;2022-12-22T14:57:38;31.40;;;30.43;;
70450;SDS011;58869;51.982;4.450;2022-12-22T15:02:54;31.07;;;30.65;;
70450;SDS011;58869;51.982;4.450;2022-12-22T15:05:32;32.43;;;31.26;;
70450;SDS011;58869;51.982;4.450;2022-12-22T15:08:01;34.68;;;33.67;;
70450;SDS011;58869;51.982;4.450;2022-12-22T15:10:32;33.46;;;32.36;;
70450;SDS011;58869;51.982;4.450;2022-12-22T15:13:09;32.71;;;31.57;;
70450;SDS011;58869;51.982;4.450;2022-12-22T15:15:41;30.79;;;30.17;;
70450;SDS011;58869;51.982;4.450;2022-12-22T15:18:09;31.83;;;30.77;;
70450;SDS011;58869;51.982;4.450;2022-12-22T15:20:37;29.07;;;28.25;;
70450;SDS011;58869;51.982;4.450;2022-12-22T15:23:07;27.80;;;26.96;;
70450;SDS011;58869;51.982;4.450;2022-12-22T15:25:35;27.58;;;26.67;;
70450;SDS011;58869;51.982;4.450;2022-12-22T15:28:01;25.22;;;24.56;;
70450;SDS011;58869;51.982;4.450;2022-12-22T15:30:26;22.84;;;22.53;;
70450;SDS011;58869;51.982;4.450;2022-12-22T15:32:51;22.20;;;21.72;;
70450;SDS011;58869;51.982;4.450;2022-12-22T15:35:31;21.10;;;20.60;;
70450;SDS011;58869;51.982;4.450;2022-12-22T15:38:05;20.77;;;20.15;;
70450;SDS011;58869;51.982;4.450;2022-12-22T15:40:36;21.59;;;20.93;;
70450;SDS011;58869;51.982;4.450;2022-12-22T15:43:02;22.40;;;21.51;;
70450;SDS011;58869;51.982;4.450;2022-12-22T15:45:27;21.44;;;20.58;;
70450;SDS011;58869;51.982;4.450;2022-12-22T15:48:08;21.44;;;20.78;;
70450;SDS011;58869;51.982;4.450;2022-12-22T15:50:40;22.00;;;20.94;;
70450;SDS011;58869;51.982;4.450;2022-12-22T15:53:16;22.08;;;20.86;;
70450;SDS011;58869;51.982;4.450;2022-12-22T15:55:44;21.74;;;20.92;;
70450;SDS011;58869;51.982;4.450;2022-12-22T15:58:23;20.66;;;20.13;;
70450;SDS011;58869;51.982;4.450;2022-12-22T16:00:51;21.45;;;20.94;;
70450;SDS011;58869;51.982;4.450;2022-12-22T16:03:35;23.91;;;22.97;;
70450;SDS011;58869;51.982;4.450;2022-12-22T16:06:04;24.42;;;23.57;;
70450;SDS011;58869;51.982;4.450;2022-12-22T16:08:35;24.05;;;23.70;;
70450;SDS011;58869;51.982;4.450;2022-12-22T16:11:05;26.07;;;25.08;;
70450;SDS011;58869;51.982;4.450;2022-12-22T16:13:44;26.56;;;25.60;;
70450;SDS011;58869;51.982;4.450;2022-12-22T16:16:10;25.81;;;25.38;;
70450;SDS011;58869;51.982;4.450;2022-12-22T16:18:36;28.37;;;27.04;;
70450;SDS011;58869;51.982;4.450;2022-12-22T16:21:17;29.09;;;27.76;;
70450;SDS011;58869;51.982;4.450;2022-12-22T16:23:53;28.98;;;28.26;;
70450;SDS011;58869;51.982;4.450;2022-12-22T16:26:19;29.46;;;28.86;;
70450;SDS011;58869;51.982;4.450;2022-12-22T16:28:46;30.38;;;29.07;;
70450;SDS011;58869;51.982;4.450;2022-12-22T16:31:16;30.57;;;28.95;;
70450;SDS011;58869;51.982;4.450;2022-12-22T16:33:44;30.58;;;28.99;;
70450;SDS011;58869;51.982;4.450;2022-12-22T16:36:09;29.86;;;28.16;;
70450;SDS011;58869;51.982;4.450;2022-12-22T16:38:34;28.27;;;27.17;;
70450;SDS011;58869;51.982;4.450;2022-12-22T16:41:00;27.88;;;27.07;;
70450;SDS011;58869;51.982;4.450;2022-12-22T16:43:32;27.85;;;26.54;;
70450;SDS011;58869;51.982;4.450;2022-12-22T16:46:01;27.55;;;26.36;;
70450;SDS011;58869;51.982;4.450;2022-12-22T16:48:33;27.95;;;26.59;;
70450;SDS011;58869;51.982;4.450;2022-12-22T16:51:04;26.85;;;25.62;;
70450;SDS011;58869;51.982;4.450;2022-12-22T16:53:30;25.86;;;24.82;;
70450;SDS011;58869;51.982;4.450;2022-12-22T16:55:56;25.90;;;24.48;;
70450;SDS011;58869;51.982;4.450;2022-12-22T16:58:23;24.20;;;22.83;;
70450;SDS011;58869;51.982;4.450;2022-12-22T17:00:49;23.36;;;22.06;;
70450;SDS011;58869;51.982;4.450;2022-12-22T17:03:18;21.90;;;21.17;;
70450;SDS011;58869;51.982;4.450;2022-12-22T17:05:49;21.59;;;21.25;;
70450;SDS011;58869;51.982;4.450;2022-12-22T17:08:27;20.88;;;20.41;;
70450;SDS011;58869;51.982;4.450;2022-12-22T17:10:57;21.00;;;20.08;;
70450;SDS011;58869;51.982;4.450;2022-12-22T17:13:24;22.27;;;21.02;;
70450;SDS011;58869;51.982;4.450;2022-12-22T17:15:50;21.55;;;20.60;;
70450;SDS011;58869;51.982;4.450;2022-12-22T17:18:16;19.94;;;19.80;;
70450;SDS011;58869;51.982;4.450;2022-12-22T17:20:47;19.37;;;19.22;;
70450;SDS011;58869;51.982;4.450;2022-12-22T17:26:17;20.69;;;19.88;;
70450;SDS011;58869;51.982;4.450;2022-12-22T17:28:45;18.60;;;18.47;;
70450;SDS011;58869;51.982;4.450;2022-12-22T17:31:26;18.63;;;18.04;;
70450;SDS011;58869;51.982;4.450;2022-12-22T17:39:39;17.11;;;16.96;;
70450;SDS011;58869;51.982;4.450;2022-12-22T17:45:21;13.09;;;13.01;;